createdAt,value
2022-12-26T00:03:58.800Z,12.5
2022-12-26T00:10:31.958Z,12.4
2022-12-26T00:16:21.490Z,12.4
2022-12-26T00:22:12.557Z,12.3
2022-12-26T00:28:02.851Z,12.3
2022-12-26T00:33:53.220Z,12.3
2022-12-26T00:39:43.372Z,12.2
2022-12-26T00:45:34.014Z,12.2
2022-12-26T00:51:24.041Z,12.1
2022-12-26T00:57:14.757Z,12.2
2022-12-26T01:03:05.059Z,12.3
2022-12-26T01:08:55.114Z,12.2
2022-12-26T01:14:45.998Z,12.2
2022-12-26T01:20:35.874Z,12.3
2022-12-26T01:26:26.196Z,12.2
2022-12-26T01:32:16.302Z,12.1
2022-12-26T01:38:06.617Z,12
2022-12-26T01:43:56.967Z,11.9
2022-12-26T01:49:47.281Z,12
2022-12-26T01:55:38.279Z,12.1
2022-12-26T02:01:28.564Z,12.1
2022-12-26T02:07:20.287Z,12.1
2022-12-26T02:13:12.396Z,12
2022-12-26T02:19:03.126Z,12
2022-12-26T02:24:54.064Z,11.9
2022-12-26T02:30:44.760Z,11.9
2022-12-26T02:36:35.259Z,11.9
2022-12-26T02:42:25.977Z,11.9
2022-12-26T02:48:16.397Z,12
2022-12-26T02:54:07.048Z,12
2022-12-26T02:59:57.593Z,12
2022-12-26T03:05:47.726Z,12.1
2022-12-26T03:11:38.003Z,12.2
2022-12-26T03:17:29.020Z,12.1
2022-12-26T03:23:19.203Z,12.1
2022-12-26T03:29:11.291Z,12.1
2022-12-26T03:35:08.089Z,12
2022-12-26T03:40:58.671Z,12
2022-12-26T03:46:49.614Z,11.9
2022-12-26T03:52:40.181Z,11.8
2022-12-26T03:58:31.896Z,11.9
2022-12-26T17:52:15.430Z,8.9
2022-12-26T17:58:09.790Z,8.6
2022-12-26T18:04:08.336Z,8.3
2022-12-26T18:10:27.785Z,8.3
2022-12-26T18:16:17.708Z,8.2
2022-12-26T18:22:09.510Z,8.1
2022-12-26T18:28:01.172Z,8
2022-12-26T18:33:52.261Z,7.6
2022-12-26T18:39:44.869Z,7.4
2022-12-26T18:45:36.239Z,7.3
2022-12-26T18:51:27.482Z,7.3
2022-12-26T18:57:20.148Z,7.2
2022-12-26T19:03:12.176Z,7.2
2022-12-26T19:09:02.563Z,6.9
2022-12-26T19:14:53.771Z,6.8
2022-12-26T19:20:44.802Z,6.9
2022-12-26T19:26:36.360Z,6.8
2022-12-26T19:32:26.989Z,6.6
2022-12-26T19:38:19.222Z,6.6
2022-12-26T19:44:11.454Z,6.4
2022-12-26T19:50:04.829Z,6.4
2022-12-26T19:55:57.352Z,6.4
2022-12-26T20:01:48.967Z,6.3
2022-12-26T20:07:41.191Z,6.2
2022-12-26T20:13:33.041Z,6.1
2022-12-26T20:19:24.577Z,6.1
2022-12-26T20:25:16.963Z,5.9
2022-12-26T20:31:13.639Z,6.1
2022-12-26T20:37:08.280Z,6
2022-12-26T20:43:13.888Z,6
2022-12-26T20:49:10.076Z,6
2022-12-26T20:55:03.177Z,5.7
2022-12-26T21:00:58.726Z,5.9
2022-12-26T21:06:52.790Z,5.8
2022-12-26T21:12:46.235Z,5.8
2022-12-26T21:18:39.894Z,5.8
2022-12-26T21:24:34.268Z,5.6
2022-12-26T21:30:25.079Z,5.7
2022-12-26T21:36:15.739Z,5.4
2022-12-26T21:42:06.337Z,5.3
2022-12-26T21:47:56.089Z,5.2
2022-12-26T21:53:48.797Z,5.2
2022-12-26T21:59:40.265Z,5.4
2022-12-26T22:05:32.524Z,5.3
2022-12-26T22:11:22.846Z,5.2
2022-12-26T22:17:13.845Z,5.3
2022-12-26T22:23:04.128Z,5.3
2022-12-26T22:28:53.460Z,5.2
2022-12-26T22:34:43.373Z,5.1
2022-12-26T22:40:33.092Z,5
2022-12-26T22:46:22.709Z,4.9
2022-12-26T22:52:15.947Z,4.8
2022-12-26T22:58:06.109Z,5
2022-12-26T23:03:56.315Z,4.6
2022-12-26T23:09:45.528Z,4.9
2022-12-26T23:15:35.555Z,4.8
2022-12-26T23:21:26.132Z,4.8
2022-12-26T23:27:16.244Z,4.8
2022-12-26T23:33:04.565Z,4.8
2022-12-26T23:38:54.942Z,4.7
2022-12-26T23:44:46.229Z,4.7
2022-12-26T23:50:37.130Z,4.3
2022-12-26T23:56:29.728Z,4.4
